Flight Track Log - Related Links

Times and Time Zones

All times are in EDT time to prevent confusion due to time zone crossing. See the N9464M flight status page for this flight to view local times or setup timezone preferences in your user account.

Time Position Orientation Groundspeed Altitude Reporting Facility
EDT Latitude Longitude Course Direction KTS MPH feet Rate Location/Type
Sat 12:18:32 PM 23.6297 -76.1153 292° West 112 129 6,000  Level Miami Center
Sat 12:19:34 PM 23.6417 -76.1472 292° West 112 129 6,500 528 Climbing Miami Center
Sat 12:20:37 PM 23.6544 -76.1792 294° West 112 129 7,100 576 Climbing Miami Center
Sat 12:21:39 PM 23.6703 -76.2181 294° West 114 131 7,700 581 Climbing Miami Center
Sat 12:22:41 PM 23.6817 -76.2522 290° West 114 131 8,300 387 Climbing Miami Center
Sat 12:23:43 PM 23.6931 -76.2850 291° West 115 132 8,500 96 Climbing Miami Center
Sat 12:24:46 PM 23.7164 -76.3242 303° West 135 155 8,500 -48 Level Miami Center
Sat 12:25:48 PM 23.7439 -76.3606 310° West 148 170 8,400 -97 Descending Miami Center
Sat 12:26:50 PM 23.7683 -76.4006 304° West 154 177 8,300 -144 Descending Miami Center
Sat 12:27:53 PM 23.7906 -76.4550 294° West 157 181 8,100 -288 Descending Miami Center
Sat 12:28:55 PM 23.8083 -76.5025 292° West 161 185 7,700 -145 Descending Miami Center
Sat 12:29:57 PM 23.8289 -76.5486 296° West 165 190 7,800  Climbing Miami Center
Sat 12:30:59 PM 23.8522 -76.5917 301° West 165 190 7,700 -48 Descending Miami Center
Sat 12:32:02 PM 23.8717 -76.6369 295° West 165 190 7,700 96 Level Miami Center
Sat 12:33:04 PM 23.8933 -76.6931 293° West 165 190 7,900 97 Climbing Miami Center
Sat 12:34:06 PM 23.9122 -76.7386 294° West 166 191 7,900  Level Miami Center
Sat 12:35:09 PM 23.9325 -76.7833 296° West 165 190 7,900 -48 Level Miami Center
Sat 12:36:11 PM 23.9494 -76.8289 292° West 165 190 7,800  Descending Miami Center
Sat 12:37:13 PM 23.9656 -76.8756 291° West 165 190 7,900 48 Climbing Miami Center
Sat 12:38:15 PM 23.9822 -76.9214 292° West 165 190 7,900  Level Miami Center
Sat 12:39:18 PM 24.0019 -76.9767 291° West 165 190 7,900  Level Miami Center
Sat 12:40:20 PM 24.0186 -77.0222 292° West 165 190 7,900  Level Miami Center
Sat 12:41:22 PM 24.0350 -77.0686 291° West 165 190 7,900  Level Miami Center
Sat 12:42:24 PM 24.0528 -77.1142 293° West 164 189 7,900  Level Miami Center
Sat 12:43:27 PM 24.0706 -77.1603 293° West 164 189 7,900  Level Miami Center
Sat 12:44:29 PM 24.0867 -77.2072 291° West 164 189 7,900  Level Miami Center
Sat 12:45:31 PM 24.1061 -77.2631 291° West 164 189 7,900 48 Level Miami Center
Sat 12:46:34 PM 24.1228 -77.3097 291° West 164 189 8,000  Climbing Miami Center
Sat 12:47:36 PM 24.1389 -77.3567 291° West 164 189 7,900 -48 Descending Miami Center
Sat 12:48:38 PM 24.1550 -77.4025 291° West 164 189 7,900  Level Miami Center
Sat 12:49:40 PM 24.1794 -77.4431 303° West 163 188 7,900 48 Level Miami Center
Sat 12:50:43 PM 24.2189 -77.4869 315° West 163 188 8,000 48 Climbing Miami Center
Sat 12:51:45 PM 24.2494 -77.5247 312° West 163 188 8,000  Level Miami Center
Sat 12:52:47 PM 24.2781 -77.5633 309° West 163 188 8,000 -48 Level Miami Center
Sat 12:53:50 PM 24.3072 -77.6025 309° West 163 188 7,900 -48 Descending Miami Center
Sat 12:54:52 PM 24.3375 -77.6433 309° West 166 191 7,900 -48 Level Miami Center
Sat 12:55:54 PM 24.3672 -77.6831 309° West 167 192 7,800  Descending Miami Center
Sat 12:56:57 PM 24.4047 -77.7294 312° West 167 192 7,900 48 Climbing Miami Center
Sat 12:57:59 PM 24.4344 -77.7675 311° West 167 192 7,900  Level Miami Center
Sat 12:59:01 PM 24.4639 -77.8058 310° West 167 192 7,900 48 Level Miami Center
Sat 01:00:04 PM 24.4908 -77.8461 306° West 167 192 8,000  Climbing Miami Center
Sat 01:12:56 PM 24.9058 -78.3161 282° West 230 265 7,900 -7 Descending Miami Center
Sat 01:13:00 PM 24.9204 -78.3237 311° West  Level FlightAware Approximate
Sat 01:13:59 PM 24.9361 -78.3525 313° West 165 190 7,900  Level Miami Center
Sat 01:14:00 PM 24.9511 -78.3633 311° West  Level FlightAware Approximate
Sat 01:15:00 PM 24.9717 -78.4084 282° West  Level FlightAware Approximate
Sat 01:15:01 PM 24.9736 -78.3928 316° Northwest 165 190 7,900  Level Miami Center
Sat 01:16:00 PM 24.9819 -78.4593 282° West  Level FlightAware Approximate
Sat 01:16:28 PM 24.9872 -78.4664 282° West 194 223 7,900  Level Miami Center
Sat 01:17:00 PM 24.9921 -78.5102 282° West  Level FlightAware Approximate
Sat 01:17:31 PM 25.0017 -78.5147 288° West 171 197 7,900  Level Miami Center
Sat 01:18:00 PM 25.0023 -78.5611 282° West  Level FlightAware Approximate
Sat 01:18:33 PM 25.0108 -78.5661 281° West 171 197 7,900  Level Miami Center
Sat 01:19:35 PM 25.0206 -78.6164 282° West 170 196 8,000 48 Climbing Miami Center
Sat 01:20:38 PM 25.0347 -78.6764 285° West 170 196 8,000  Level Miami Center
Sat 01:21:40 PM 25.0450 -78.7269 283° West 170 196 8,000  Level Miami Center
Sat 01:22:42 PM 25.0542 -78.7772 281° West 170 196 8,000  Level Miami Center
Sat 01:23:44 PM 25.0592 -78.8292 276° West 170 196 8,000 -48 Level Miami Center
Sat 01:24:47 PM 25.0647 -78.8808 277° West 170 196 7,900  Descending Miami Center
Sat 01:25:49 PM 25.0692 -78.9336 275° West 170 196 8,000 48 Climbing Miami Center
Sat 01:26:51 PM 25.0769 -78.9958 278° West 170 196 8,000  Level Miami Center
Sat 01:27:54 PM 25.0808 -79.0481 275° West 170 196 8,000 -48 Level Miami Center
Sat 01:28:56 PM 25.0867 -79.0997 277° West 170 196 7,900 -48 Descending Miami Center
Sat 01:29:58 PM 25.0894 -79.1539 273° West 170 196 7,900  Level Miami Center
Sat 01:31:01 PM 25.0931 -79.2056 274° West 170 196 7,900  Level Miami Center
Sat 01:32:03 PM 25.0983 -79.2689 275° West 170 196 7,900  Level Miami Center
Sat 01:33:05 PM 25.1006 -79.3214 273° West 171 197 7,900  Level Miami Center
Sat 01:34:08 PM 25.1022 -79.3725 272° West 170 196 7,900 -48 Level Miami Center
Sat 01:35:10 PM 25.1058 -79.4253 274° West 171 197 7,800  Descending Miami Center
Sat 01:36:12 PM 25.1067 -79.4803 271° West 172 198 7,900 48 Climbing Miami Center
Sat 01:37:15 PM 25.1047 -79.5428 268° West 172 198 7,900  Level Miami Center
Sat 01:38:17 PM 25.1033 -79.5967 268° West 172 198 7,900  Level Miami Center
Sat 01:39:19 PM 25.0989 -79.6514 265° West 174 200 7,900 -48 Level Miami Center
Sat 01:40:22 PM 25.0950 -79.7056 265° West 175 201 7,800 -48 Descending Miami Center
Sat 01:41:24 PM 25.0919 -79.7592 266° West 175 201 7,800  Level Miami Center
Sat 01:42:26 PM 25.0872 -79.8247 265° West 176 203 7,800 48 Level Miami Center
Sat 01:43:29 PM 25.0842 -79.8781 266° West 176 203 7,900 48 Climbing Miami Center
Sat 01:44:31 PM 25.0800 -79.9322 265° West 176 203 7,900  Level Miami Center
Sat 01:45:33 PM 25.0761 -79.9858 265° West 176 203 7,900  Level Miami Center
Sat 01:46:36 PM 25.0711 -80.0386 264° West 176 203 7,900 48 Level Miami Center
Sat 01:47:38 PM 25.0675 -80.0925 266° West 176 203 8,000 48 Climbing Miami Center
Sat 01:48:40 PM 25.0614 -80.1575 264° West 176 203 8,000  Level Miami Center
Sat 01:49:42 PM 25.0583 -80.2106 266° West 176 203 8,000 -48 Level Miami Center
Sat 01:50:45 PM 25.0544 -80.2653 266° West 176 203 7,900 192 Descending Miami Center
Sat 01:51:47 PM 25.0503 -80.3153 265° West 169 194 8,400 532 Climbing Miami Center
Sat 01:52:49 PM 25.0614 -80.3600 285° West 159 183 9,000 532 Climbing Miami Center
Sat 01:53:51 PM 25.0814 -80.4064 295° West 144 166 9,500 480 Climbing Miami Center
Sat 01:54:54 PM 25.0956 -80.4442 293° West 137 158 10,000 240 Climbing Miami Center
Sat 01:55:56 PM 25.1136 -80.4878 295° West 147 169 10,000  Level Miami Center
Sat 01:56:58 PM 25.1400 -80.5289 305° West 159 183 10,000  Level Miami Center
Sat 01:58:01 PM 25.1658 -80.5731 303° West 165 190 10,000 -48 Level Miami Center
Sat 01:59:03 PM 25.1914 -80.6158 303° West 165 190 9,900 -48 Descending Miami Center
Sat 02:00:05 PM 25.2239 -80.6678 305° West 168 193 9,900 48 Level Miami Center
Sat 02:01:07 PM 25.2494 -80.7119 303° West 170 196 10,000 48 Climbing Miami Center
Sat 02:02:10 PM 25.2742 -80.7564 302° West 170 196 10,000 -48 Level Miami Center
Sat 02:03:12 PM 25.2925 -80.8053 293° West 172 198 9,900 -48 Descending Miami Center
Sat 02:04:14 PM 25.3067 -80.8564 287° West 173 199 9,900 48 Level Miami Center
Sat 02:05:16 PM 25.3211 -80.9072 287° West 173 199 10,000  Climbing Miami Center
Sat 02:06:19 PM 25.3386 -80.9692 287° West 174 200 9,900 -48 Descending Miami Center
Sat 02:07:21 PM 25.3544 -81.0197 289° West 174 200 9,900 -48 Level Miami Center
Sat 02:08:23 PM 25.3711 -81.0703 290° West 174 200 9,800  Descending Miami Center
Sat 02:09:26 PM 25.4014 -81.1092 311° West 168 193 9,900  Climbing Miami Center
Sat 02:10:28 PM 25.4247 -81.1503 302° West 165 190 9,800 -435 Descending Miami Center
Sat 02:11:30 PM 25.4561 -81.2089 301° West 176 203 9,000 -816 Descending Miami Center
Sat 02:12:33 PM 25.4800 -81.2656 295° West 196 226 8,100 -816 Descending Miami Center
Sat 02:13:35 PM 25.5053 -81.3211 297° West 198 228 7,300 -774 Descending Miami Center
Sat 02:14:37 PM 25.5228 -81.3792 288° West 200 230 6,500 -726 Descending Miami Center
Sat 02:15:39 PM 25.5572 -81.4281 308° West 208 239 5,800 -672 Descending Miami Center
Sat 02:16:42 PM 25.6017 -81.4553 331° Northwest 193 222 5,100 -576 Descending Miami Center
Sat 02:17:44 PM 25.6542 -81.4886 330° Northwest 187 215 4,600 -532 Descending Miami Center
Sat 02:18:46 PM 25.7003 -81.5169 331° Northwest 182 209 4,000 -336 Descending Miami Center
Sat 02:19:49 PM 25.7439 -81.5406 334° Northwest 176 203 3,900 -96 Descending Miami Center
Sat 02:20:51 PM 25.7883 -81.5625 336° Northwest 167 192 3,800 -194 Descending Miami Center
Sat 02:21:53 PM 25.8308 -81.5939 326° Northwest 168 193 3,500 -432 Descending Miami Center
Sat 02:22:56 PM 25.8731 -81.6208 330° Northwest 175 201 2,900 -528 Descending Miami Center
Sat 02:23:58 PM 25.9211 -81.6500 331° Northwest 179 206 2,400 -387 Descending Miami Center
Sat 02:25:00 PM 25.9647 -81.6728 335° Northwest 178 205 2,100 -336 Descending Miami Center
Sat 02:26:03 PM 26.0125 -81.6969 336° Northwest 177 204 1,700 -336 Descending Miami Center
Sat 02:27:05 PM 26.0528 -81.7250 328° Northwest 176 203 1,400 -435 Descending Miami Center
Sat 02:28:07 PM 26.0953 -81.7569 326° Northwest 174 200 800 -384 Descending Miami Center
Sat 02:29:10 PM 26.1308 -81.7828 327° Northwest 145 167 600 -240 Descending Miami Center
Sat 02:30:12 PM 26.1600 -81.8006 331° Northwest 126 145 300 -290 Descending Miami Center

Login

Don't have an account? Register now (free) for customized features, flight alerts, and more!